Accueil
METAR-TAF:

METAR-TAF

Aéroports :

Aéroport de Split

Split, Croatie

latitude: 43-32N, longitude: 016-18E, altitude: 19 m

Observation

Le bulletin a été fait il y a 40 minutes, à 05:00 UTC
Vent 6 kt de nord-ouest
Température 20°C
Humidité 78%
Pression 1010 hPa
Visibilité 10 km ou plus
pas de nuages en-dessous de 1500 mètres et pas de cumulonimbus.

METAR: LDSP 200500Z 31006KT CAVOK 20/16 Q1010 NOSIG

Heure: 07:40 (05:40 UTC)

Prévision

Le bulletin a été fait il y a 15 minutes, à 05:25 UTC
Prévision valable du 20 à 06 UTC au 21 à 06 UTC
Vent 8 kt de nord-ouest
Visibilité 10 km ou plus
Quelques nuages à une hauteur de 3000 ft
Probabilité 30%
du 20 à 11 UTC au 20 à 14 UTC
Vent 10 kt de sud-ouest

TAF: LDSP 200525Z 2006/2106 31008KT 9999 FEW030 TX25/2012Z TN18/2104Z PROB30 2011/2014 23010KT

Observations et prévisions météorologiques de plus de 4000 aéroports (messages METAR et TAF).

Les stations disponibles sont représentées par des disques jaunes et rouges sur la carte.

Passer la souris dessus pour voir le nom de la station.

Cliquer dessus pour voir les observations et prévisions météorologiques.

Pour changer de carte: cliquez sur les boutons verts avec une croix noire pour zoomer, sur le bouton vert avec un tiret pour effectuer un zoom arrière, ou sur les flèches vertes pour les cartes adjacentes.


METAR-TAF: